sensor_id;sensor_type;location;lat;lon;timestamp;temperature;humidity
13521;DHT22;6832;51.186;3.236;2023-03-16T00:02:23;15.30;56.20
13521;DHT22;6832;51.186;3.236;2023-03-16T00:04:50;15.30;56.20
13521;DHT22;6832;51.186;3.236;2023-03-16T00:07:17;15.30;56.20
13521;DHT22;6832;51.186;3.236;2023-03-16T00:09:47;15.30;56.10
13521;DHT22;6832;51.186;3.236;2023-03-16T00:12:15;15.30;56.10
13521;DHT22;6832;51.186;3.236;2023-03-16T00:14:43;15.30;56.20
13521;DHT22;6832;51.186;3.236;2023-03-16T00:17:11;15.30;56.20
13521;DHT22;6832;51.186;3.236;2023-03-16T00:19:44;15.30;56.20
13521;DHT22;6832;51.186;3.236;2023-03-16T00:22:13;15.30;56.20
13521;DHT22;6832;51.186;3.236;2023-03-16T00:24:40;15.30;56.20
13521;DHT22;6832;51.186;3.236;2023-03-16T00:27:13;15.30;56.20
13521;DHT22;6832;51.186;3.236;2023-03-16T00:29:44;15.40;56.20
13521;DHT22;6832;51.186;3.236;2023-03-16T00:32:16;15.20;56.10
13521;DHT22;6832;51.186;3.236;2023-03-16T00:34:45;15.30;56.20
13521;DHT22;6832;51.186;3.236;2023-03-16T00:37:14;15.20;56.10
13521;DHT22;6832;51.186;3.236;2023-03-16T00:39:42;15.20;56.10
13521;DHT22;6832;51.186;3.236;2023-03-16T00:42:10;15.20;56.10
13521;DHT22;6832;51.186;3.236;2023-03-16T00:44:39;15.20;56.10
13521;DHT22;6832;51.186;3.236;2023-03-16T00:47:10;15.20;56.10
13521;DHT22;6832;51.186;3.236;2023-03-16T00:49:39;15.20;56.10
13521;DHT22;6832;51.186;3.236;2023-03-16T00:52:08;15.20;56.10
13521;DHT22;6832;51.186;3.236;2023-03-16T00:54:39;15.20;56.70
13521;DHT22;6832;51.186;3.236;2023-03-16T00:57:07;15.20;56.10
13521;DHT22;6832;51.186;3.236;2023-03-16T00:59:34;15.20;56.10
13521;DHT22;6832;51.186;3.236;2023-03-16T01:02:04;15.20;56.10
13521;DHT22;6832;51.186;3.236;2023-03-16T01:04:32;15.20;56.10
13521;DHT22;6832;51.186;3.236;2023-03-16T01:07:01;15.20;56.10
13521;DHT22;6832;51.186;3.236;2023-03-16T01:09:27;15.20;56.10
13521;DHT22;6832;51.186;3.236;2023-03-16T01:11:54;15.20;56.10
13521;DHT22;6832;51.186;3.236;2023-03-16T01:14:22;15.20;56.10
13521;DHT22;6832;51.186;3.236;2023-03-16T01:16:49;15.20;56.10
13521;DHT22;6832;51.186;3.236;2023-03-16T01:19:17;15.20;56.10
13521;DHT22;6832;51.186;3.236;2023-03-16T01:21:44;15.20;56.10
13521;DHT22;6832;51.186;3.236;2023-03-16T01:24:11;15.20;56.20
13521;DHT22;6832;51.186;3.236;2023-03-16T01:26:38;15.10;56.10
13521;DHT22;6832;51.186;3.236;2023-03-16T01:29:05;15.10;56.00
13521;DHT22;6832;51.186;3.236;2023-03-16T01:31:32;15.10;56.00
13521;DHT22;6832;51.186;3.236;2023-03-16T01:33:59;15.20;56.10
13521;DHT22;6832;51.186;3.236;2023-03-16T01:36:30;15.20;56.10
13521;DHT22;6832;51.186;3.236;2023-03-16T01:38:57;15.10;56.10
13521;DHT22;6832;51.186;3.236;2023-03-16T01:41:24;15.10;56.00
13521;DHT22;6832;51.186;3.236;2023-03-16T01:43:51;15.20;56.10
13521;DHT22;6832;51.186;3.236;2023-03-16T01:46:24;15.10;56.00
13521;DHT22;6832;51.186;3.236;2023-03-16T01:48:55;15.10;56.10
13521;DHT22;6832;51.186;3.236;2023-03-16T01:51:26;15.10;56.10
13521;DHT22;6832;51.186;3.236;2023-03-16T01:53:59;15.10;56.10
13521;DHT22;6832;51.186;3.236;2023-03-16T01:56:31;15.10;56.10
13521;DHT22;6832;51.186;3.236;2023-03-16T01:59:01;15.10;56.00
13521;DHT22;6832;51.186;3.236;2023-03-16T02:01:31;15.10;56.10
13521;DHT22;6832;51.186;3.236;2023-03-16T02:04:06;15.20;56.10
13521;DHT22;6832;51.186;3.236;2023-03-16T02:06:34;15.20;56.10
13521;DHT22;6832;51.186;3.236;2023-03-16T02:09:04;15.10;56.10
13521;DHT22;6832;51.186;3.236;2023-03-16T02:11:32;15.10;56.10
13521;DHT22;6832;51.186;3.236;2023-03-16T02:14:05;15.10;56.10
13521;DHT22;6832;51.186;3.236;2023-03-16T02:16:33;15.10;56.10
13521;DHT22;6832;51.186;3.236;2023-03-16T02:19:00;15.00;56.00
13521;DHT22;6832;51.186;3.236;2023-03-16T02:21:32;15.10;56.00
13521;DHT22;6832;51.186;3.236;2023-03-16T02:24:03;15.10;56.10
13521;DHT22;6832;51.186;3.236;2023-03-16T02:26:35;15.10;56.00
13521;DHT22;6832;51.186;3.236;2023-03-16T02:29:13;15.10;56.10
13521;DHT22;6832;51.186;3.236;2023-03-16T02:31:44;15.10;56.00
13521;DHT22;6832;51.186;3.236;2023-03-16T02:34:13;15.10;56.10
13521;DHT22;6832;51.186;3.236;2023-03-16T02:36:43;15.00;56.00
13521;DHT22;6832;51.186;3.236;2023-03-16T02:39:11;15.00;56.00
13521;DHT22;6832;51.186;3.236;2023-03-16T02:41:38;15.00;56.00
13521;DHT22;6832;51.186;3.236;2023-03-16T02:44:09;15.10;56.00
13521;DHT22;6832;51.186;3.236;2023-03-16T02:46:39;15.10;56.10
13521;DHT22;6832;51.186;3.236;2023-03-16T02:49:13;15.10;56.10
13521;DHT22;6832;51.186;3.236;2023-03-16T02:51:42;15.00;56.00
13521;DHT22;6832;51.186;3.236;2023-03-16T02:54:09;15.00;56.00
13521;DHT22;6832;51.186;3.236;2023-03-16T02:56:36;15.10;56.00
13521;DHT22;6832;51.186;3.236;2023-03-16T02:59:03;15.00;56.00
13521;DHT22;6832;51.186;3.236;2023-03-16T03:01:30;15.00;56.60
13521;DHT22;6832;51.186;3.236;2023-03-16T03:03:59;15.00;56.00
13521;DHT22;6832;51.186;3.236;2023-03-16T03:06:28;15.00;56.00
13521;DHT22;6832;51.186;3.236;2023-03-16T03:08:55;15.00;56.00
13521;DHT22;6832;51.186;3.236;2023-03-16T03:11:21;15.00;56.00
13521;DHT22;6832;51.186;3.236;2023-03-16T03:13:48;15.00;56.00
13521;DHT22;6832;51.186;3.236;2023-03-16T03:16:18;15.00;56.00
13521;DHT22;6832;51.186;3.236;2023-03-16T03:18:46;15.00;56.00
13521;DHT22;6832;51.186;3.236;2023-03-16T03:21:13;15.00;56.00
13521;DHT22;6832;51.186;3.236;2023-03-16T03:23:45;15.00;56.00
13521;DHT22;6832;51.186;3.236;2023-03-16T03:26:15;15.00;56.00
13521;DHT22;6832;51.186;3.236;2023-03-16T03:28:43;15.00;56.00
13521;DHT22;6832;51.186;3.236;2023-03-16T03:31:15;15.00;56.00
13521;DHT22;6832;51.186;3.236;2023-03-16T03:33:42;15.00;56.00
13521;DHT22;6832;51.186;3.236;2023-03-16T03:36:10;15.00;56.00
13521;DHT22;6832;51.186;3.236;2023-03-16T03:38:38;15.00;56.00
13521;DHT22;6832;51.186;3.236;2023-03-16T03:41:07;15.00;56.00
13521;DHT22;6832;51.186;3.236;2023-03-16T03:43:34;15.00;56.00
13521;DHT22;6832;51.186;3.236;2023-03-16T03:46:02;15.00;56.00
13521;DHT22;6832;51.186;3.236;2023-03-16T03:48:29;15.00;56.00
13521;DHT22;6832;51.186;3.236;2023-03-16T03:50:56;15.00;56.00
13521;DHT22;6832;51.186;3.236;2023-03-16T03:53:23;14.90;55.90
13521;DHT22;6832;51.186;3.236;2023-03-16T03:55:50;14.90;55.90
13521;DHT22;6832;51.186;3.236;2023-03-16T03:58:19;14.90;55.90
13521;DHT22;6832;51.186;3.236;2023-03-16T04:00:46;14.90;55.90
13521;DHT22;6832;51.186;3.236;2023-03-16T04:03:13;14.90;55.90
13521;DHT22;6832;51.186;3.236;2023-03-16T04:05:40;14.90;55.90
13521;DHT22;6832;51.186;3.236;2023-03-16T04:08:07;14.90;55.90
13521;DHT22;6832;51.186;3.236;2023-03-16T04:10:34;14.90;55.90
13521;DHT22;6832;51.186;3.236;2023-03-16T04:13:01;14.90;55.90
13521;DHT22;6832;51.186;3.236;2023-03-16T04:15:29;14.90;55.90
13521;DHT22;6832;51.186;3.236;2023-03-16T04:17:57;14.90;55.90
13521;DHT22;6832;51.186;3.236;2023-03-16T04:20:24;14.90;55.90
13521;DHT22;6832;51.186;3.236;2023-03-16T04:22:51;14.90;55.90
13521;DHT22;6832;51.186;3.236;2023-03-16T04:25:23;14.90;55.90
13521;DHT22;6832;51.186;3.236;2023-03-16T04:27:50;14.90;55.90
13521;DHT22;6832;51.186;3.236;2023-03-16T04:30:18;14.90;55.90
13521;DHT22;6832;51.186;3.236;2023-03-16T04:32:46;14.90;55.90
13521;DHT22;6832;51.186;3.236;2023-03-16T04:35:13;14.90;55.90
13521;DHT22;6832;51.186;3.236;2023-03-16T04:37:41;14.90;55.90
13521;DHT22;6832;51.186;3.236;2023-03-16T04:40:09;14.80;55.80
13521;DHT22;6832;51.186;3.236;2023-03-16T04:42:41;14.90;55.90
13521;DHT22;6832;51.186;3.236;2023-03-16T04:45:09;14.90;55.90
13521;DHT22;6832;51.186;3.236;2023-03-16T04:47:36;14.90;55.90
13521;DHT22;6832;51.186;3.236;2023-03-16T04:50:07;14.90;55.90
13521;DHT22;6832;51.186;3.236;2023-03-16T04:52:35;14.90;55.90
13521;DHT22;6832;51.186;3.236;2023-03-16T04:55:02;14.70;55.90
13521;DHT22;6832;51.186;3.236;2023-03-16T04:57:28;14.90;55.90
13521;DHT22;6832;51.186;3.236;2023-03-16T04:59:57;14.80;55.80
13521;DHT22;6832;51.186;3.236;2023-03-16T05:02:24;14.80;55.90
13521;DHT22;6832;51.186;3.236;2023-03-16T05:04:51;14.80;55.80
13521;DHT22;6832;51.186;3.236;2023-03-16T05:07:21;14.80;55.90
13521;DHT22;6832;51.186;3.236;2023-03-16T05:09:48;14.80;55.90
13521;DHT22;6832;51.186;3.236;2023-03-16T05:12:14;14.80;55.90
13521;DHT22;6832;51.186;3.236;2023-03-16T05:14:41;14.80;55.90
13521;DHT22;6832;51.186;3.236;2023-03-16T05:17:08;14.80;55.80
13521;DHT22;6832;51.186;3.236;2023-03-16T05:19:35;14.80;55.80
13521;DHT22;6832;51.186;3.236;2023-03-16T05:22:02;14.80;55.90
13521;DHT22;6832;51.186;3.236;2023-03-16T05:24:30;14.80;55.80
13521;DHT22;6832;51.186;3.236;2023-03-16T05:26:57;14.80;55.80
13521;DHT22;6832;51.186;3.236;2023-03-16T05:29:24;14.80;55.80
13521;DHT22;6832;51.186;3.236;2023-03-16T05:31:51;14.80;55.80
13521;DHT22;6832;51.186;3.236;2023-03-16T05:34:18;14.80;55.80
13521;DHT22;6832;51.186;3.236;2023-03-16T05:36:45;14.80;55.80
13521;DHT22;6832;51.186;3.236;2023-03-16T05:39:13;14.80;55.80
13521;DHT22;6832;51.186;3.236;2023-03-16T05:41:41;14.80;55.80
13521;DHT22;6832;51.186;3.236;2023-03-16T05:44:08;14.80;55.80
13521;DHT22;6832;51.186;3.236;2023-03-16T05:46:35;14.80;55.80
13521;DHT22;6832;51.186;3.236;2023-03-16T05:49:02;14.80;55.80
13521;DHT22;6832;51.186;3.236;2023-03-16T05:51:29;14.80;55.90
13521;DHT22;6832;51.186;3.236;2023-03-16T05:53:59;14.80;55.80
13521;DHT22;6832;51.186;3.236;2023-03-16T05:56:27;14.80;55.80
13521;DHT22;6832;51.186;3.236;2023-03-16T05:58:55;14.80;55.80
13521;DHT22;6832;51.186;3.236;2023-03-16T06:01:23;14.90;55.90
13521;DHT22;6832;51.186;3.236;2023-03-16T06:03:50;14.80;55.80
13521;DHT22;6832;51.186;3.236;2023-03-16T06:06:18;14.80;55.80
13521;DHT22;6832;51.186;3.236;2023-03-16T06:08:46;14.80;55.80
13521;DHT22;6832;51.186;3.236;2023-03-16T06:11:15;14.80;55.80
13521;DHT22;6832;51.186;3.236;2023-03-16T06:13:42;14.80;55.80
13521;DHT22;6832;51.186;3.236;2023-03-16T06:16:11;14.80;55.80
13521;DHT22;6832;51.186;3.236;2023-03-16T06:18:39;14.80;55.80
13521;DHT22;6832;51.186;3.236;2023-03-16T06:21:06;14.80;55.80
13521;DHT22;6832;51.186;3.236;2023-03-16T06:23:33;14.80;55.80
13521;DHT22;6832;51.186;3.236;2023-03-16T06:26:00;14.80;55.80
13521;DHT22;6832;51.186;3.236;2023-03-16T06:28:27;14.80;55.80
13521;DHT22;6832;51.186;3.236;2023-03-16T06:30:54;14.70;55.70
13521;DHT22;6832;51.186;3.236;2023-03-16T06:33:23;14.70;55.70
13521;DHT22;6832;51.186;3.236;2023-03-16T06:35:50;14.70;55.70
13521;DHT22;6832;51.186;3.236;2023-03-16T06:38:17;14.70;55.70
13521;DHT22;6832;51.186;3.236;2023-03-16T06:40:44;14.80;55.80
13521;DHT22;6832;51.186;3.236;2023-03-16T06:43:11;14.70;55.70
13521;DHT22;6832;51.186;3.236;2023-03-16T06:45:38;14.70;55.70
13521;DHT22;6832;51.186;3.236;2023-03-16T06:48:06;14.70;55.70
13521;DHT22;6832;51.186;3.236;2023-03-16T06:50:35;14.70;55.70
13521;DHT22;6832;51.186;3.236;2023-03-16T06:53:02;14.80;55.80
13521;DHT22;6832;51.186;3.236;2023-03-16T06:55:29;14.70;55.70
13521;DHT22;6832;51.186;3.236;2023-03-16T06:57:56;14.70;55.70
13521;DHT22;6832;51.186;3.236;2023-03-16T07:00:25;14.70;55.70
13521;DHT22;6832;51.186;3.236;2023-03-16T07:02:52;14.70;55.70
13521;DHT22;6832;51.186;3.236;2023-03-16T07:05:18;14.70;55.70
13521;DHT22;6832;51.186;3.236;2023-03-16T07:07:47;14.70;55.70
13521;DHT22;6832;51.186;3.236;2023-03-16T07:10:15;14.70;55.70
13521;DHT22;6832;51.186;3.236;2023-03-16T07:12:43;14.70;55.70
13521;DHT22;6832;51.186;3.236;2023-03-16T07:15:11;14.70;55.70
13521;DHT22;6832;51.186;3.236;2023-03-16T07:17:38;14.70;55.80
13521;DHT22;6832;51.186;3.236;2023-03-16T07:20:09;14.70;55.70
13521;DHT22;6832;51.186;3.236;2023-03-16T07:22:37;14.70;55.70
13521;DHT22;6832;51.186;3.236;2023-03-16T07:25:07;14.70;55.70
13521;DHT22;6832;51.186;3.236;2023-03-16T07:27:35;14.60;55.70
13521;DHT22;6832;51.186;3.236;2023-03-16T07:30:03;14.70;55.70
13521;DHT22;6832;51.186;3.236;2023-03-16T07:32:31;14.70;55.70
13521;DHT22;6832;51.186;3.236;2023-03-16T07:34:58;14.70;55.70
13521;DHT22;6832;51.186;3.236;2023-03-16T07:37:25;14.60;55.70
13521;DHT22;6832;51.186;3.236;2023-03-16T07:39:52;14.70;55.70
13521;DHT22;6832;51.186;3.236;2023-03-16T07:42:21;14.70;55.70
13521;DHT22;6832;51.186;3.236;2023-03-16T07:44:48;14.70;55.70
13521;DHT22;6832;51.186;3.236;2023-03-16T07:47:16;14.80;55.80
13521;DHT22;6832;51.186;3.236;2023-03-16T07:49:43;14.70;55.70
13521;DHT22;6832;51.186;3.236;2023-03-16T07:52:10;14.70;55.70
13521;DHT22;6832;51.186;3.236;2023-03-16T07:54:38;14.70;55.70
13521;DHT22;6832;51.186;3.236;2023-03-16T07:57:05;14.60;55.60
13521;DHT22;6832;51.186;3.236;2023-03-16T07:59:35;14.70;55.70
13521;DHT22;6832;51.186;3.236;2023-03-16T08:02:03;14.70;55.70
13521;DHT22;6832;51.186;3.236;2023-03-16T08:04:30;14.70;55.70
13521;DHT22;6832;51.186;3.236;2023-03-16T08:06:56;14.70;55.70
13521;DHT22;6832;51.186;3.236;2023-03-16T08:09:25;14.70;55.70
13521;DHT22;6832;51.186;3.236;2023-03-16T08:11:52;14.70;55.70
13521;DHT22;6832;51.186;3.236;2023-03-16T08:14:18;14.70;55.70
13521;DHT22;6832;51.186;3.236;2023-03-16T08:16:47;14.70;55.70
13521;DHT22;6832;51.186;3.236;2023-03-16T08:19:14;14.80;55.80
13521;DHT22;6832;51.186;3.236;2023-03-16T08:21:42;14.70;55.80
13521;DHT22;6832;51.186;3.236;2023-03-16T08:24:09;14.70;55.70
13521;DHT22;6832;51.186;3.236;2023-03-16T08:26:36;14.70;55.70
13521;DHT22;6832;51.186;3.236;2023-03-16T08:29:03;14.60;55.70
13521;DHT22;6832;51.186;3.236;2023-03-16T08:31:30;14.70;55.70
13521;DHT22;6832;51.186;3.236;2023-03-16T08:34:01;14.70;55.70
13521;DHT22;6832;51.186;3.236;2023-03-16T08:36:28;14.70;55.70
13521;DHT22;6832;51.186;3.236;2023-03-16T08:38:55;14.70;55.70
13521;DHT22;6832;51.186;3.236;2023-03-16T08:41:23;14.70;55.70
13521;DHT22;6832;51.186;3.236;2023-03-16T08:43:49;14.70;55.80
13521;DHT22;6832;51.186;3.236;2023-03-16T08:46:17;14.70;55.80
13521;DHT22;6832;51.186;3.236;2023-03-16T08:48:45;14.70;55.70
13521;DHT22;6832;51.186;3.236;2023-03-16T08:51:14;14.70;55.70
13521;DHT22;6832;51.186;3.236;2023-03-16T08:53:42;14.80;55.80
13521;DHT22;6832;51.186;3.236;2023-03-16T08:56:10;14.70;55.70
13521;DHT22;6832;51.186;3.236;2023-03-16T08:58:39;14.70;55.70
13521;DHT22;6832;51.186;3.236;2023-03-16T09:01:11;14.70;55.70
13521;DHT22;6832;51.186;3.236;2023-03-16T09:03:38;14.80;55.80
13521;DHT22;6832;51.186;3.236;2023-03-16T09:06:06;14.70;55.70
13521;DHT22;6832;51.186;3.236;2023-03-16T09:08:36;14.70;55.70
13521;DHT22;6832;51.186;3.236;2023-03-16T09:11:07;14.70;56.40
13521;DHT22;6832;51.186;3.236;2023-03-16T09:13:38;14.70;55.70
13521;DHT22;6832;51.186;3.236;2023-03-16T09:16:05;14.70;55.70
13521;DHT22;6832;51.186;3.236;2023-03-16T09:18:33;14.70;55.70
13521;DHT22;6832;51.186;3.236;2023-03-16T09:21:03;14.70;55.80
13521;DHT22;6832;51.186;3.236;2023-03-16T09:23:31;14.80;55.80
13521;DHT22;6832;51.186;3.236;2023-03-16T09:26:01;14.70;55.70
13521;DHT22;6832;51.186;3.236;2023-03-16T09:28:29;14.80;55.80
13521;DHT22;6832;51.186;3.236;2023-03-16T09:34:14;14.80;55.80
13521;DHT22;6832;51.186;3.236;2023-03-16T09:36:41;14.80;55.80
13521;DHT22;6832;51.186;3.236;2023-03-16T09:39:08;14.80;55.80
13521;DHT22;6832;51.186;3.236;2023-03-16T09:41:43;14.80;55.80
13521;DHT22;6832;51.186;3.236;2023-03-16T09:44:26;14.80;55.80
13521;DHT22;6832;51.186;3.236;2023-03-16T09:46:59;14.70;56.20
13521;DHT22;6832;51.186;3.236;2023-03-16T09:49:32;14.70;56.10
13521;DHT22;6832;51.186;3.236;2023-03-16T09:52:07;14.80;56.00
13521;DHT22;6832;51.186;3.236;2023-03-16T09:54:40;14.80;55.90
13521;DHT22;6832;51.186;3.236;2023-03-16T09:57:17;14.90;55.90
13521;DHT22;6832;51.186;3.236;2023-03-16T09:59:49;14.90;55.90
13521;DHT22;6832;51.186;3.236;2023-03-16T10:05:23;14.90;55.90
13521;DHT22;6832;51.186;3.236;2023-03-16T10:07:59;14.90;55.90
13521;DHT22;6832;51.186;3.236;2023-03-16T10:10:41;14.90;55.90
13521;DHT22;6832;51.186;3.236;2023-03-16T10:13:18;14.90;56.00
13521;DHT22;6832;51.186;3.236;2023-03-16T10:15:50;14.90;55.90
13521;DHT22;6832;51.186;3.236;2023-03-16T10:18:20;14.90;55.90
13521;DHT22;6832;51.186;3.236;2023-03-16T10:20:50;14.90;55.90
13521;DHT22;6832;51.186;3.236;2023-03-16T10:23:22;14.90;55.90
13521;DHT22;6832;51.186;3.236;2023-03-16T10:25:50;14.90;55.90
13521;DHT22;6832;51.186;3.236;2023-03-16T10:28:21;14.90;55.90
13521;DHT22;6832;51.186;3.236;2023-03-16T10:30:50;15.00;56.00
13521;DHT22;6832;51.186;3.236;2023-03-16T10:33:22;15.00;56.00
13521;DHT22;6832;51.186;3.236;2023-03-16T10:35:54;15.00;56.00
13521;DHT22;6832;51.186;3.236;2023-03-16T10:38:30;15.00;56.00
13521;DHT22;6832;51.186;3.236;2023-03-16T10:40:58;15.00;56.00
13521;DHT22;6832;51.186;3.236;2023-03-16T10:43:27;15.00;56.00
13521;DHT22;6832;51.186;3.236;2023-03-16T10:46:00;15.00;56.00
13521;DHT22;6832;51.186;3.236;2023-03-16T10:48:33;15.00;56.00
13521;DHT22;6832;51.186;3.236;2023-03-16T10:51:04;15.00;56.00
13521;DHT22;6832;51.186;3.236;2023-03-16T10:53:35;15.00;56.00
13521;DHT22;6832;51.186;3.236;2023-03-16T10:56:10;15.00;56.00
13521;DHT22;6832;51.186;3.236;2023-03-16T10:58:41;15.10;56.10
13521;DHT22;6832;51.186;3.236;2023-03-16T11:01:17;15.10;56.10
13521;DHT22;6832;51.186;3.236;2023-03-16T11:03:49;15.10;56.10
13521;DHT22;6832;51.186;3.236;2023-03-16T11:06:19;15.10;56.10
13521;DHT22;6832;51.186;3.236;2023-03-16T11:08:47;15.10;56.10
13521;DHT22;6832;51.186;3.236;2023-03-16T11:11:26;15.10;56.60
13521;DHT22;6832;51.186;3.236;2023-03-16T11:14:00;15.10;56.10
13521;DHT22;6832;51.186;3.236;2023-03-16T11:16:31;15.20;56.10
13521;DHT22;6832;51.186;3.236;2023-03-16T11:19:05;15.20;56.20
13521;DHT22;6832;51.186;3.236;2023-03-16T11:21:42;15.20;56.10
13521;DHT22;6832;51.186;3.236;2023-03-16T11:24:17;15.20;56.10
13521;DHT22;6832;51.186;3.236;2023-03-16T11:26:52;15.20;56.10
13521;DHT22;6832;51.186;3.236;2023-03-16T11:29:30;15.20;56.10
13521;DHT22;6832;51.186;3.236;2023-03-16T11:32:02;15.20;56.10
13521;DHT22;6832;51.186;3.236;2023-03-16T11:34:31;15.20;56.10
13521;DHT22;6832;51.186;3.236;2023-03-16T11:37:04;15.20;56.10
13521;DHT22;6832;51.186;3.236;2023-03-16T11:39:40;15.20;56.10
13521;DHT22;6832;51.186;3.236;2023-03-16T11:42:29;15.30;56.20
13521;DHT22;6832;51.186;3.236;2023-03-16T11:45:02;15.30;56.30
13521;DHT22;6832;51.186;3.236;2023-03-16T11:50:32;15.30;56.30
13521;DHT22;6832;51.186;3.236;2023-03-16T11:53:06;15.30;56.20
13521;DHT22;6832;51.186;3.236;2023-03-16T11:55:39;15.30;56.30
13521;DHT22;6832;51.186;3.236;2023-03-16T11:58:27;15.40;56.30
13521;DHT22;6832;51.186;3.236;2023-03-16T12:01:11;15.40;56.40
13521;DHT22;6832;51.186;3.236;2023-03-16T12:04:00;15.40;56.30
13521;DHT22;6832;51.186;3.236;2023-03-16T12:06:49;15.30;56.30
13521;DHT22;6832;51.186;3.236;2023-03-16T12:09:41;15.40;56.40
13521;DHT22;6832;51.186;3.236;2023-03-16T12:12:26;15.50;56.50
13521;DHT22;6832;51.186;3.236;2023-03-16T12:15:07;15.50;56.50
13521;DHT22;6832;51.186;3.236;2023-03-16T12:17:41;15.50;56.60
13521;DHT22;6832;51.186;3.236;2023-03-16T12:20:16;15.50;56.50
13521;DHT22;6832;51.186;3.236;2023-03-16T12:22:46;15.50;57.20
13521;DHT22;6832;51.186;3.236;2023-03-16T12:25:25;15.50;56.60
13521;DHT22;6832;51.186;3.236;2023-03-16T12:27:56;15.60;56.60
13521;DHT22;6832;51.186;3.236;2023-03-16T12:30:34;15.60;56.60
13521;DHT22;6832;51.186;3.236;2023-03-16T12:33:07;15.60;56.60
13521;DHT22;6832;51.186;3.236;2023-03-16T12:35:44;15.70;56.70
13521;DHT22;6832;51.186;3.236;2023-03-16T12:38:28;15.70;57.30
13521;DHT22;6832;51.186;3.236;2023-03-16T12:41:05;15.70;56.70
13521;DHT22;6832;51.186;3.236;2023-03-16T12:43:58;15.70;56.70
13521;DHT22;6832;51.186;3.236;2023-03-16T12:46:33;15.80;56.80
13521;DHT22;6832;51.186;3.236;2023-03-16T12:49:04;15.80;56.70
13521;DHT22;6832;51.186;3.236;2023-03-16T12:51:32;15.80;56.70
13521;DHT22;6832;51.186;3.236;2023-03-16T12:54:00;15.90;56.70
13521;DHT22;6832;51.186;3.236;2023-03-16T12:56:30;15.90;56.70
13521;DHT22;6832;51.186;3.236;2023-03-16T12:59:00;15.90;56.70
13521;DHT22;6832;51.186;3.236;2023-03-16T13:01:29;15.90;56.70
13521;DHT22;6832;51.186;3.236;2023-03-16T13:04:01;16.00;56.80
13521;DHT22;6832;51.186;3.236;2023-03-16T13:06:34;16.00;56.80
13521;DHT22;6832;51.186;3.236;2023-03-16T13:09:03;16.00;56.80
13521;DHT22;6832;51.186;3.236;2023-03-16T13:11:40;16.00;56.80
13521;DHT22;6832;51.186;3.236;2023-03-16T13:14:12;16.10;56.90
13521;DHT22;6832;51.186;3.236;2023-03-16T13:16:40;16.10;56.90
13521;DHT22;6832;51.186;3.236;2023-03-16T13:19:24;16.10;56.90
13521;DHT22;6832;51.186;3.236;2023-03-16T13:22:03;16.10;56.90
13521;DHT22;6832;51.186;3.236;2023-03-16T13:24:37;16.10;56.90
13521;DHT22;6832;51.186;3.236;2023-03-16T13:27:14;16.20;57.00
13521;DHT22;6832;51.186;3.236;2023-03-16T13:29:52;16.20;57.00
13521;DHT22;6832;51.186;3.236;2023-03-16T13:32:20;16.30;57.00
13521;DHT22;6832;51.186;3.236;2023-03-16T13:34:49;16.30;57.00
13521;DHT22;6832;51.186;3.236;2023-03-16T13:37:19;16.30;57.00
13521;DHT22;6832;51.186;3.236;2023-03-16T13:39:52;16.40;57.10
13521;DHT22;6832;51.186;3.236;2023-03-16T13:42:20;16.40;57.10
13521;DHT22;6832;51.186;3.236;2023-03-16T13:44:50;16.40;57.10
13521;DHT22;6832;51.186;3.236;2023-03-16T13:47:20;16.40;57.10
13521;DHT22;6832;51.186;3.236;2023-03-16T13:49:49;16.40;57.10
13521;DHT22;6832;51.186;3.236;2023-03-16T13:52:24;16.40;57.10
13521;DHT22;6832;51.186;3.236;2023-03-16T13:54:51;16.50;57.20
13521;DHT22;6832;51.186;3.236;2023-03-16T13:57:21;16.50;57.20
13521;DHT22;6832;51.186;3.236;2023-03-16T13:59:49;16.50;57.20
13521;DHT22;6832;51.186;3.236;2023-03-16T14:02:23;16.50;57.20
13521;DHT22;6832;51.186;3.236;2023-03-16T14:04:50;16.50;57.20
13521;DHT22;6832;51.186;3.236;2023-03-16T14:07:19;16.60;57.20
13521;DHT22;6832;51.186;3.236;2023-03-16T14:09:48;16.60;57.90
13521;DHT22;6832;51.186;3.236;2023-03-16T14:12:18;16.60;57.30
13521;DHT22;6832;51.186;3.236;2023-03-16T14:14:49;16.70;57.30
13521;DHT22;6832;51.186;3.236;2023-03-16T14:17:21;16.60;57.30
13521;DHT22;6832;51.186;3.236;2023-03-16T14:19:51;16.70;57.30
13521;DHT22;6832;51.186;3.236;2023-03-16T14:22:22;16.70;57.30
13521;DHT22;6832;51.186;3.236;2023-03-16T14:24:53;16.80;57.40
13521;DHT22;6832;51.186;3.236;2023-03-16T14:27:25;16.80;57.40
13521;DHT22;6832;51.186;3.236;2023-03-16T14:29:56;16.80;57.40
13521;DHT22;6832;51.186;3.236;2023-03-16T14:32:27;16.80;57.40
13521;DHT22;6832;51.186;3.236;2023-03-16T14:35:09;16.80;57.40
13521;DHT22;6832;51.186;3.236;2023-03-16T14:37:39;16.90;57.50
13521;DHT22;6832;51.186;3.236;2023-03-16T14:40:20;16.90;57.40
13521;DHT22;6832;51.186;3.236;2023-03-16T14:42:46;16.90;57.40
13521;DHT22;6832;51.186;3.236;2023-03-16T14:45:14;16.90;57.40
13521;DHT22;6832;51.186;3.236;2023-03-16T14:47:44;17.00;57.50
13521;DHT22;6832;51.186;3.236;2023-03-16T14:50:14;17.00;57.50
13521;DHT22;6832;51.186;3.236;2023-03-16T14:52:44;17.00;57.40
13521;DHT22;6832;51.186;3.236;2023-03-16T14:55:13;17.00;57.40
13521;DHT22;6832;51.186;3.236;2023-03-16T14:57:41;17.00;57.40
13521;DHT22;6832;51.186;3.236;2023-03-16T15:00:11;17.10;57.50
13521;DHT22;6832;51.186;3.236;2023-03-16T15:02:41;17.10;57.40
13521;DHT22;6832;51.186;3.236;2023-03-16T15:05:19;17.10;57.40
13521;DHT22;6832;51.186;3.236;2023-03-16T15:07:51;17.10;57.50
13521;DHT22;6832;51.186;3.236;2023-03-16T15:10:21;17.20;57.50
13521;DHT22;6832;51.186;3.236;2023-03-16T15:12:49;17.20;57.50
13521;DHT22;6832;51.186;3.236;2023-03-16T15:15:20;17.20;57.40
13521;DHT22;6832;51.186;3.236;2023-03-16T15:17:50;17.20;57.50
13521;DHT22;6832;51.186;3.236;2023-03-16T15:20:20;17.30;57.50
13521;DHT22;6832;51.186;3.236;2023-03-16T15:22:50;17.20;57.40
13521;DHT22;6832;51.186;3.236;2023-03-16T15:25:22;17.20;57.40
13521;DHT22;6832;51.186;3.236;2023-03-16T15:27:50;17.30;57.50
13521;DHT22;6832;51.186;3.236;2023-03-16T15:30:20;17.30;57.50
13521;DHT22;6832;51.186;3.236;2023-03-16T15:32:47;17.30;57.50
13521;DHT22;6832;51.186;3.236;2023-03-16T15:35:15;17.30;57.40
13521;DHT22;6832;51.186;3.236;2023-03-16T15:37:42;17.30;57.50
13521;DHT22;6832;51.186;3.236;2023-03-16T15:40:16;17.40;57.50
13521;DHT22;6832;51.186;3.236;2023-03-16T15:42:44;17.40;57.50
13521;DHT22;6832;51.186;3.236;2023-03-16T15:45:13;17.40;57.50
13521;DHT22;6832;51.186;3.236;2023-03-16T15:47:42;17.40;57.50
13521;DHT22;6832;51.186;3.236;2023-03-16T15:50:10;17.40;57.50
13521;DHT22;6832;51.186;3.236;2023-03-16T15:52:39;17.40;57.50
13521;DHT22;6832;51.186;3.236;2023-03-16T15:55:28;17.40;57.50
13521;DHT22;6832;51.186;3.236;2023-03-16T15:57:59;17.50;57.50
13521;DHT22;6832;51.186;3.236;2023-03-16T16:00:29;17.50;57.50
13521;DHT22;6832;51.186;3.236;2023-03-16T16:02:58;17.50;57.50
13521;DHT22;6832;51.186;3.236;2023-03-16T16:05:26;17.50;57.40
13521;DHT22;6832;51.186;3.236;2023-03-16T16:07:53;17.50;57.40
13521;DHT22;6832;51.186;3.236;2023-03-16T16:10:21;17.50;57.40
13521;DHT22;6832;51.186;3.236;2023-03-16T16:12:52;17.50;58.00